»·PEaware :: MSR777 KSAN-KLAS

MSR777 :: KSAN-KLAS

FLIGHT INFORMATION

Flight Status: Arrived
Operator:
Egyptair
More flights by this operator :: More flights under this callsign
Pilot: Ahmed Y. (12864)
Aircraft: BOEING 737-500
(B735)
More flights by this aircraft type
Origin: KSAN San Diego Intl-Lindbergh
United States
Destination: KLAS McCarran Intl
United States
More flights between these airports :: More routes between these airports
Route: +PEBLE6 SXC LAX DAG KEPEC3
File this flight plan on PilotEdge
Remarks: UNABLE RVSM
Altitude:
(Current/Filed)
200ft
Speed:
(Current/Filed)
400kts
Departed: 12-Oct-16 05:14 PM
Arrived: 12-Oct-16 06:19 PM
Distance/Time
Traveled:
225nm/1:05
Distance/Time
To Go:
Arrived

Flight Plot

Page will automatically refresh every two minutes.


Map Options




Map Legend


Flown Route
Filed Route
Departure Airport
Arrival Airport
Navaid (VOR, NDB)
Fix

Horizontal Profiles

Position Reports

Time Latitude Longitude Heading Altitude Ground
Speed
12-Oct-16 16:39 32.734277 -117.200690 209 24ft 0kts
12-Oct-16 16:40 32.734277 -117.200690 209 24ft 0kts
12-Oct-16 16:41 32.734277 -117.200690 209 24ft 0kts
12-Oct-16 16:42 32.734277 -117.200690 209 24ft 0kts
12-Oct-16 16:43 32.734277 -117.200690 209 24ft 0kts
12-Oct-16 16:44 32.734277 -117.200690 209 24ft 0kts
12-Oct-16 16:45 32.734277 -117.200690 209 24ft 0kts
12-Oct-16 16:46 32.734277 -117.200690 209 24ft 0kts
12-Oct-16 16:47 32.734277 -117.200690 209 24ft 0kts
12-Oct-16 16:48 32.734277 -117.200690 209 24ft 0kts
12-Oct-16 16:49 32.734277 -117.200690 209 24ft 0kts
12-Oct-16 16:50 32.734277 -117.200690 209 24ft 0kts
12-Oct-16 16:51 32.734277 -117.200690 209 24ft 0kts
12-Oct-16 16:52 32.734277 -117.200690 209 24ft 0kts
12-Oct-16 16:53 32.734277 -117.200690 209 24ft 0kts
12-Oct-16 16:54 32.734277 -117.200690 209 24ft 0kts
12-Oct-16 16:55 32.734277 -117.200690 209 24ft 0kts
12-Oct-16 16:56 32.734277 -117.200690 209 24ft 0kts
12-Oct-16 16:57 32.734277 -117.200690 209 24ft 0kts
12-Oct-16 16:58 32.734277 -117.200690 209 24ft 0kts
12-Oct-16 16:59 32.734277 -117.200690 209 24ft 0kts
12-Oct-16 17:00 32.734383 -117.200616 210 24ft 0kts
12-Oct-16 17:01 32.734874 -117.200529 139 24ft 0kts
12-Oct-16 17:02 32.734973 -117.200650 135 24ft 0kts
12-Oct-16 17:03 32.734973 -117.200650 135 24ft 0kts
12-Oct-16 17:04 32.734352 -117.197195 106 24ft 19kts
12-Oct-16 17:05 32.732747 -117.190589 105 24ft 22kts
12-Oct-16 17:06 32.730879 -117.182898 105 24ft 25kts
12-Oct-16 17:07 32.729485 -117.176791 70 24ft 2kts
12-Oct-16 17:08 32.729491 -117.176769 70 24ft 0kts
12-Oct-16 17:09 32.730222 -117.176240 317 24ft 11kts
12-Oct-16 17:10 32.736695 -117.202314 286 276ft 171kts
12-Oct-16 17:11 32.761781 -117.251673 304 2546ft 211kts
12-Oct-16 17:12 32.798902 -117.315536 303 5007ft 259kts
12-Oct-16 17:13 32.840198 -117.388065 302 8197ft 272kts
12-Oct-16 17:14 32.894979 -117.453078 325 10310ft 320kts
12-Oct-16 17:15 32.975858 -117.513074 326 12582ft 353kts
12-Oct-16 17:16 33.037657 -117.601826 302 15240ft 355kts
12-Oct-16 17:17 33.094317 -117.699221 302 17677ft 364kts
12-Oct-16 17:18 33.153225 -117.793567 306 19992ft 369kts
12-Oct-16 17:19 33.204290 -117.901039 292 20979ft 385kts
12-Oct-16 17:20 33.244482 -118.020955 292 20989ft 389kts
12-Oct-16 17:21 33.286081 -118.144830 291 20996ft 404kts
12-Oct-16 17:22 33.327040 -118.269758 291 20990ft 404kts
12-Oct-16 17:23 33.368056 -118.394997 294 20988ft 404kts
12-Oct-16 17:24 33.465438 -118.438481 15 21005ft 434kts
12-Oct-16 17:25 33.582990 -118.423954 355 20990ft 423kts
12-Oct-16 17:26 33.700272 -118.426110 355 20990ft 423kts
12-Oct-16 17:27 33.812588 -118.428641 355 20990ft 422kts
12-Oct-16 17:28 33.929971 -118.429257 7 20970ft 429kts
12-Oct-16 17:29 34.004659 -118.321177 63 20994ft 459kts
12-Oct-16 17:30 34.069936 -118.192760 52 20990ft 453kts
12-Oct-16 17:31 34.138844 -118.070593 52 20991ft 453kts
12-Oct-16 17:32 34.209425 -117.945170 52 20990ft 453kts
12-Oct-16 17:33 34.280232 -117.818905 52 20990ft 453kts
12-Oct-16 17:34 34.350848 -117.692536 52 20991ft 453kts
12-Oct-16 17:35 34.421248 -117.566316 51 20991ft 453kts
12-Oct-16 17:36 34.491869 -117.440360 52 20991ft 453kts
12-Oct-16 17:37 34.550022 -117.335263 52 20987ft 453kts
12-Oct-16 17:38 34.632389 -117.188408 52 20990ft 453kts
12-Oct-16 17:39 34.690802 -117.082621 53 20990ft 454kts
12-Oct-16 17:40 34.772219 -116.932839 53 20990ft 454kts
12-Oct-16 17:41 34.830024 -116.826085 53 20990ft 454kts
12-Oct-16 17:42 34.899327 -116.697671 53 20990ft 454kts
12-Oct-16 17:43 34.969292 -116.569257 45 20979ft 451kts
12-Oct-16 17:44 35.056451 -116.460571 41 20990ft 448kts
12-Oct-16 17:45 35.138123 -116.358212 41 20992ft 448kts
12-Oct-16 17:46 35.224829 -116.250153 41 20991ft 448kts
12-Oct-16 17:47 35.312072 -116.140503 42 20560ft 448kts
12-Oct-16 17:48 35.398226 -116.031808 42 19123ft 433kts
12-Oct-16 17:49 35.476164 -115.933187 42 17134ft 388kts
12-Oct-16 17:50 35.549483 -115.840183 43 14379ft 373kts
12-Oct-16 17:51 35.619044 -115.751654 43 13085ft 336kts
12-Oct-16 17:52 35.678629 -115.675673 42 13048ft 304kts
12-Oct-16 17:53 35.739009 -115.600082 42 13098ft 309kts
12-Oct-16 17:54 35.816058 -115.571449 0 13097ft 298kts
12-Oct-16 17:55 35.898743 -115.566143 359 13090ft 297kts
12-Oct-16 17:56 35.976188 -115.540362 52 13082ft 311kts
12-Oct-16 17:57 36.009161 -115.440371 66 13045ft 312kts
12-Oct-16 17:58 36.028659 -115.340571 93 11437ft 294kts
12-Oct-16 17:59 36.021896 -115.243198 94 9813ft 280kts
12-Oct-16 18:00 36.015427 -115.149944 94 8488ft 271kts
12-Oct-16 18:01 36.009568 -115.063346 94 8020ft 240kts
12-Oct-16 18:02 36.003974 -114.978571 93 8103ft 251kts
12-Oct-16 18:03 35.993311 -114.894139 89 8095ft 251kts
12-Oct-16 18:04 35.990866 -114.807860 92 8090ft 250kts
12-Oct-16 18:05 35.990368 -114.722738 62 7597ft 246kts
12-Oct-16 18:06 36.046814 -114.705202 340 5921ft 224kts
12-Oct-16 18:07 36.077540 -114.754466 260 4559ft 183kts
12-Oct-16 18:08 36.071458 -114.809332 266 3823ft 156kts
12-Oct-16 18:09 36.071029 -114.867277 271 3965ft 167kts
12-Oct-16 18:10 36.073341 -114.919285 276 3830ft 148kts
12-Oct-16 18:11 36.073538 -114.969819 270 3833ft 147kts
12-Oct-16 18:12 36.074282 -115.019651 270 3802ft 144kts
12-Oct-16 18:13 36.073902 -115.070402 269 3139ft 150kts
12-Oct-16 18:14 36.073674 -115.118463 269 2308ft 133kts
12-Oct-16 18:15 36.073666 -115.151934 276 2148ft 27kts
12-Oct-16 18:16 36.074661 -115.155043 299 2148ft 0kts
12-Oct-16 18:17 36.074761 -115.155261 299 2148ft 1kts
12-Oct-16 18:18 36.076383 -115.157452 316 2148ft 16kts
12-Oct-16 18:19 36.078035 -115.156339 91 2148ft 7kts
12-Oct-16 18:20 36.078133 -115.153554 57 2148ft 9kts
12-Oct-16 18:21 36.080842 -115.154424 359 2148ft 11kts
12-Oct-16 18:22 36.082070 -115.151801 32 2148ft 7kts
12-Oct-16 18:23 36.082288 -115.151583 43 2148ft 0kts
12-Oct-16 18:24 36.082288 -115.151583 43 2148ft 0kts
12-Oct-16 18:25 36.082288 -115.151583 43 2148ft 0kts

Navigation Log

Ident Type
Flight plan parsing failed, navigation log unavailable